Flight Track Log - Related Links

Times and Time Zones

All times are in EDT time to prevent confusion due to time zone crossing. See the TCF3559 flight status page for this flight to view local times or setup timezone preferences in your user account.

Time Position Orientation Groundspeed Altitude Reporting Facility
EDT Latitude Longitude Course Direction KTS MPH feet Rate Location/Type
Fri 09:27:12 AM 40.7167 -74.1333 303° West 182 209 2,400  Level New York TRACON
Fri 09:28:12 AM 40.7833 -74.1167 11° North 247 284 4,900 2,300 Climbing New York TRACON
Fri 09:29:12 AM 40.8167 -74.1833 303° West 289 333 7,000 2,400 Climbing New York TRACON
Fri 09:30:00 AM 40.8336 -74.8287 287° West  Level FlightAware Approximate
Fri 09:30:12 AM 40.8333 -74.2833 282° West 301 346 9,700  Level New York TRACON
Fri 09:31:00 AM 40.8667 -74.9590 270° West  Level FlightAware Approximate
Fri 09:31:12 AM 40.8500 -74.4000 281° West 348 400 11,300  Level New York TRACON
Fri 09:32:00 AM 40.8955 -75.0909 303° West  Level FlightAware Approximate
Fri 09:32:59 AM 40.8858 -74.6383 281° West 375 432 16,400  Level New York Center
Fri 09:33:57 AM 40.9047 -74.7575 282° West 375 432 17,000 857 Climbing New York Center
Fri 09:34:58 AM 40.9083 -74.8978 272° West 375 432 18,100 1,488 Climbing New York Center
Fri 09:35:58 AM 40.8839 -75.0528 258° West 386 444 20,000 2,118 Climbing New York Center
Fri 09:36:57 AM 40.8578 -75.1964 257° West 396 456 22,300 2,168 Climbing New York Center
Fri 09:37:57 AM 40.8297 -75.3344 255° West 414 476 24,300 2,033 Climbing New York Center
Fri 09:38:58 AM 40.8031 -75.4836 257° West 425 489 26,400 1,721 Climbing New York Center
Fri 09:39:59 AM 40.7758 -75.6406 257° West 430 495 27,800 793 Climbing New York Center
Fri 09:40:59 AM 40.7483 -75.7975 257° West 435 501 28,000 356 Climbing New York Center
Fri 09:41:57 AM 40.7161 -75.9678 256° West 435 501 28,500 1,220 Climbing New York Center
Fri 09:42:57 AM 40.6881 -76.1244 257° West 440 506 30,400 1,700 Climbing New York Center
Fri 09:43:57 AM 40.6689 -76.2706 260° West 440 506 31,900 793 Climbing New York Center
Fri 09:44:58 AM 40.6908 -76.4283 280° West 424 488 32,000 50 Climbing New York Center
Fri 09:45:58 AM 40.7144 -76.5836 281° West 434 499 32,000  Level New York Center
Fri 09:46:58 AM 40.7397 -76.7475 282° West 434 499 32,000  Level New York Center
Fri 09:47:58 AM 40.7608 -76.9028 280° West 439 505 32,000  Level New York Center
Fri 09:48:58 AM 40.7839 -77.0611 281° West 439 505 32,000  Level New York Center
Fri 09:50:36 AM 40.8211 -77.3233 281° West 451 519 32,000  Level Cleveland Center
Fri 09:51:36 AM 40.8444 -77.4842 281° West 451 519 32,000  Level Cleveland Center
Fri 09:52:36 AM 40.8675 -77.6450 281° West 451 519 32,000  Level Cleveland Center
Fri 09:53:36 AM 40.8881 -77.8036 280° West 446 513 32,000  Level Cleveland Center
Fri 09:54:36 AM 40.9106 -77.9647 281° West 446 513 32,000  Level Cleveland Center
Fri 09:55:36 AM 40.9372 -78.1231 283° West 446 513 32,000  Level Cleveland Center
Fri 09:56:36 AM 40.9653 -78.2678 284° West 446 513 32,000  Level Cleveland Center
Fri 09:57:36 AM 40.9936 -78.4483 282° West 452 520 32,000  Level Cleveland Center
Fri 09:58:36 AM 41.0175 -78.6072 281° West 452 520 32,000  Level Cleveland Center
Fri 09:59:36 AM 41.0450 -78.7689 283° West 452 520 32,000  Level Cleveland Center
Fri 10:00:36 AM 41.0703 -78.9278 282° West 452 520 32,000  Level Cleveland Center
Fri 10:01:36 AM 41.0936 -79.0897 281° West 452 520 32,000  Level Cleveland Center
Fri 10:02:36 AM 41.1206 -79.2519 282° West 452 520 32,000  Level Cleveland Center
Fri 10:03:36 AM 41.1453 -79.4086 282° West 447 514 32,000  Level Cleveland Center
Fri 10:04:36 AM 41.1697 -79.5736 281° West 447 514 32,000 -250 Level Cleveland Center
Fri 10:05:36 AM 41.1919 -79.7361 280° West 447 514 31,500 -1,450 Descending Cleveland Center
Fri 10:06:36 AM 41.2158 -79.8958 281° West 447 514 29,100 -2,350 Descending Cleveland Center
Fri 10:07:36 AM 41.2417 -80.0503 283° West 447 514 26,800 -2,250 Descending Cleveland Center
Fri 10:08:36 AM 41.2653 -80.2019 282° West 437 503 24,600 -2,300 Descending Cleveland Center
Fri 10:09:36 AM 41.2844 -80.3511 280° West 427 491 22,200 -2,250 Descending Cleveland Center
Fri 10:10:36 AM 41.3053 -80.5003 281° West 421 484 20,100 -2,150 Descending Cleveland Center
Fri 10:11:36 AM 41.3283 -80.6467 282° West 421 484 17,900 -2,150 Descending Cleveland Center
Fri 10:12:36 AM 41.3719 -80.7822 293° West 405 466 15,800 -2,063 Descending Cleveland Center
Fri 10:13:12 AM 41.4008 -80.8656 295° West 395 455 14,600 -1,700 Descending Cleveland Center
Fri 10:13:36 AM 41.4156 -80.8989 301° West 399 459 14,100 -1,970 Descending Cleveland Center
Fri 10:14:19 AM 41.4528 -80.9986 297° West 381 438 12,400 -2,000 Descending Cleveland Center
Fri 10:14:36 AM 41.4631 -81.0264 296° West 391 450 12,100 -1,574 Descending Cleveland Center
Fri 10:15:20 AM 41.4875 -81.1292 288° West 361 415 10,800 -1,600 Descending Cleveland Center
Fri 10:15:36 AM 41.4875 -81.1514 270° West 371 427 10,500 -800 Descending Cleveland Center
Fri 10:16:20 AM 41.4847 -81.2594 268° West 356 410 10,000 -500 Descending Cleveland Center
Fri 10:16:36 AM 41.4867 -81.2844 276° West 356 410 10,000 -1,279 Level Cleveland Center
Fri 10:17:21 AM 41.4881 -81.3814 271° West 288 331 8,700 -1,500 Descending Cleveland Center
Fri 10:17:36 AM 41.4903 -81.3925 285° West 326 375 8,500 -1,840 Descending Cleveland Center
Fri 10:18:36 AM 41.4978 -81.4981 275° West 295 339 6,400 -2,243 Descending Cleveland Center
Fri 10:19:23 AM 41.5072 -81.5925 278° West 283 326 4,500 -1,611 Descending Cleveland Center
Fri 10:20:24 AM 41.5086 -81.6867 271° West 241 277 3,500 -984 Descending Cleveland Center

Login

Don't have an account? Register now (free) for customized features, flight alerts, and more!